createdAt,value
2023-04-22T00:00:02.621Z,5.67
2023-04-22T00:03:10.499Z,6.22
2023-04-22T00:06:16.724Z,6.97
2023-04-22T00:09:22.677Z,7.03
2023-04-22T00:12:21.838Z,7.90
2023-04-22T00:15:28.801Z,9.98
2023-04-22T00:18:35.215Z,7.37
2023-04-22T00:21:40.410Z,11.85
2023-04-22T00:24:45.677Z,6.87
2023-04-22T00:27:51.522Z,7.80
2023-04-22T00:30:57.969Z,9.98
2023-04-22T00:34:04.678Z,9.95
2023-04-22T00:37:09.842Z,10.08
2023-04-22T00:40:15.963Z,9.10
2023-04-22T00:43:21.368Z,10.03
2023-04-22T00:46:29.190Z,8.90
2023-04-22T00:49:35.962Z,10.03
2023-04-22T00:52:42.522Z,9.08
2023-04-22T00:55:48.724Z,12.05
2023-04-22T00:58:55.023Z,7.15
2023-04-22T01:02:00.073Z,10.38
2023-04-22T01:05:05.369Z,8.58
2023-04-22T01:08:10.733Z,9.78
2023-04-22T01:11:18.048Z,10.48
2023-04-22T01:14:23.510Z,12.68
2023-04-22T01:17:31.227Z,8.90
2023-04-22T01:20:37.457Z,8.45
2023-04-22T01:23:45.380Z,15.72
2023-04-22T01:26:51.472Z,11.30
2023-04-22T01:29:57.214Z,8.95
2023-04-22T01:33:04.051Z,9.38
2023-04-22T01:36:13.009Z,11.57
2023-04-22T01:39:18.843Z,10.58
2023-04-22T01:42:25.437Z,8.53
2023-04-22T01:45:31.389Z,9.75
2023-04-22T01:48:37.132Z,7.87
2023-04-22T01:51:44.049Z,13.62
2023-04-22T01:54:52.087Z,8.38
2023-04-22T01:57:59.036Z,8.50
2023-04-22T02:01:06.789Z,11.85
2023-04-22T02:04:13.077Z,14.00
2023-04-22T02:07:19.107Z,10.90
2023-04-22T02:10:25.003Z,9.58
2023-04-22T02:13:31.112Z,10.55
2023-04-22T02:16:36.448Z,7.78
2023-04-22T02:19:42.005Z,8.38
2023-04-22T02:22:48.960Z,14.55
2023-04-22T02:25:55.219Z,11.30
2023-04-22T02:29:02.725Z,14.30
2023-04-22T02:32:07.837Z,13.00
2023-04-22T02:35:14.249Z,12.28
2023-04-22T02:38:24.374Z,9.23
2023-04-22T02:41:31.412Z,13.08
2023-04-22T02:44:36.973Z,11.28
2023-04-22T02:47:43.000Z,15.65
2023-04-22T02:50:48.880Z,12.15
2023-04-22T02:53:54.681Z,8.23
2023-04-22T02:57:00.396Z,9.83
2023-04-22T03:00:05.583Z,7.12
2023-04-22T03:03:11.729Z,11.03
2023-04-22T03:06:18.854Z,12.75
2023-04-22T03:09:24.821Z,12.70
2023-04-22T03:12:31.367Z,8.58
2023-04-22T03:15:37.195Z,11.85
2023-04-22T03:18:43.012Z,17.00
2023-04-22T03:21:50.022Z,11.30
2023-04-22T03:24:56.704Z,9.48
2023-04-22T03:28:03.842Z,10.38
2023-04-22T03:31:08.934Z,15.68
2023-04-22T03:34:14.793Z,10.30
2023-04-22T03:37:20.555Z,11.25
2023-04-22T03:40:28.186Z,11.30
2023-04-22T03:43:36.272Z,9.30
2023-04-22T03:46:43.638Z,14.65
2023-04-22T03:49:45.373Z,10.63
2023-04-22T03:52:37.592Z,11.63
2023-04-22T03:55:43.709Z,11.18
2023-04-22T03:58:49.959Z,11.15
2023-04-22T04:01:56.876Z,16.85
2023-04-22T04:05:04.908Z,12.35
2023-04-22T04:08:10.680Z,8.18
2023-04-22T04:11:16.808Z,10.85
2023-04-22T04:14:22.317Z,6.78
2023-04-22T04:17:33.285Z,8.90
2023-04-22T04:20:39.422Z,15.05
2023-04-22T04:23:45.731Z,7.95
2023-04-22T04:26:55.469Z,11.38
2023-04-22T04:30:03.917Z,8.95
2023-04-22T04:33:14.832Z,13.58
2023-04-22T04:36:22.117Z,17.35
2023-04-22T04:39:22.626Z,13.65
2023-04-22T04:42:30.605Z,14.45
2023-04-22T04:45:40.294Z,11.18
2023-04-22T04:48:46.150Z,12.00
2023-04-22T04:51:52.622Z,19.35
2023-04-22T04:54:58.401Z,15.38
2023-04-22T04:58:04.925Z,13.40
2023-04-22T05:01:10.369Z,10.20
2023-04-22T05:04:18.213Z,14.00
2023-04-22T05:07:25.494Z,12.63
2023-04-22T05:10:31.614Z,9.10
2023-04-22T05:13:37.086Z,7.47
2023-04-22T05:16:45.605Z,12.25
2023-04-22T05:19:52.256Z,9.48
2023-04-22T05:22:58.199Z,12.88
2023-04-22T05:26:03.597Z,13.62
2023-04-22T05:29:11.399Z,11.03
2023-04-22T05:32:17.957Z,8.60
2023-04-22T05:35:24.947Z,14.10
2023-04-22T05:38:30.306Z,10.70
2023-04-22T05:41:37.203Z,12.55
2023-04-22T05:44:42.344Z,12.78
2023-04-22T05:47:49.981Z,10.55
2023-04-22T05:50:56.785Z,14.55
2023-04-22T05:54:02.977Z,14.30
2023-04-22T05:57:09.187Z,9.08
2023-04-22T06:00:17.010Z,13.45
2023-04-22T06:03:27.083Z,11.55
2023-04-22T06:06:35.504Z,13.15
2023-04-22T06:09:41.600Z,12.93
2023-04-22T06:12:47.850Z,10.45
2023-04-22T06:15:54.536Z,11.70
2023-04-22T06:19:01.099Z,12.50
2023-04-22T06:22:07.067Z,10.90
2023-04-22T06:25:12.546Z,8.28
2023-04-22T06:28:17.604Z,12.78
2023-04-22T06:31:25.421Z,11.53
2023-04-22T06:34:33.462Z,10.98
2023-04-22T06:37:39.460Z,14.50
2023-04-22T06:40:44.274Z,14.13
2023-04-22T06:43:52.990Z,10.28
2023-04-22T06:47:17.839Z,13.00
2023-04-22T06:50:34.235Z,6.12
2023-04-22T06:53:41.458Z,6.65
2023-04-22T06:56:47.525Z,8.15
2023-04-22T06:59:55.505Z,9.80
2023-04-22T07:03:02.769Z,10.63
2023-04-22T07:06:09.305Z,11.30
2023-04-22T07:09:15.857Z,7.97
2023-04-22T07:12:21.877Z,13.48
2023-04-22T07:15:29.238Z,7.58
2023-04-22T07:18:36.671Z,8.58
2023-04-22T07:21:42.925Z,9.75
2023-04-22T07:24:49.875Z,11.78
2023-04-22T07:27:56.592Z,10.95
2023-04-22T07:31:03.336Z,13.28
2023-04-22T07:34:10.828Z,10.15
2023-04-22T07:37:16.498Z,8.85
2023-04-22T07:40:23.649Z,10.35
2023-04-22T07:43:29.150Z,8.05
2023-04-22T07:46:34.352Z,9.55
2023-04-22T07:49:40.384Z,8.45
2023-04-22T07:52:48.798Z,13.43
2023-04-22T07:55:56.198Z,7.97
2023-04-22T07:59:02.588Z,10.50
2023-04-22T08:02:07.975Z,7.72
2023-04-22T08:05:13.350Z,12.93
2023-04-22T08:08:20.053Z,7.95
2023-04-22T08:11:25.028Z,11.22
2023-04-22T08:14:31.639Z,10.58
2023-04-22T08:17:37.032Z,10.00
2023-04-22T08:20:43.110Z,11.10
2023-04-22T08:23:48.763Z,13.45
2023-04-22T08:26:54.844Z,9.53
2023-04-22T08:30:01.337Z,19.42
2023-04-22T08:33:01.610Z,14.15
2023-04-22T08:36:08.907Z,10.30
2023-04-22T08:39:11.085Z,8.85
2023-04-22T08:41:57.194Z,15.28
2023-04-22T08:44:51.919Z,12.28
2023-04-22T08:47:46.031Z,11.00
2023-04-22T08:50:51.966Z,15.85
2023-04-22T08:53:59.051Z,12.05
2023-04-22T08:57:04.835Z,16.90
2023-04-22T09:00:10.181Z,9.70
2023-04-22T09:03:16.365Z,14.68
2023-04-22T09:06:21.297Z,13.28
2023-04-22T09:09:27.862Z,11.88
2023-04-22T09:12:33.760Z,8.93
2023-04-22T09:15:40.732Z,11.68
2023-04-22T09:18:57.038Z,13.98
2023-04-22T09:22:04.812Z,11.78
2023-04-22T09:25:10.193Z,11.10
2023-04-22T09:28:18.225Z,16.12
2023-04-22T09:31:28.767Z,10.95
2023-04-22T09:34:36.410Z,17.05
2023-04-22T09:37:49.266Z,21.00
2023-04-22T09:40:49.972Z,13.93
2023-04-22T09:43:56.159Z,13.22
2023-04-22T09:47:03.302Z,16.70
2023-04-22T09:50:08.652Z,12.20
2023-04-22T09:53:23.474Z,13.98
2023-04-22T09:56:30.774Z,15.40
2023-04-22T09:59:36.869Z,11.45
2023-04-22T10:02:46.224Z,16.52
2023-04-22T10:05:52.863Z,17.10
2023-04-22T10:08:59.338Z,13.93
2023-04-22T10:12:06.703Z,10.95
2023-04-22T10:15:12.782Z,11.60
2023-04-22T10:18:21.652Z,15.70
2023-04-22T10:21:28.113Z,17.23
2023-04-22T10:24:35.476Z,16.55
2023-04-22T10:27:40.659Z,9.30
2023-04-22T10:30:51.210Z,15.10
2023-04-22T10:34:00.021Z,14.18
2023-04-22T10:37:22.681Z,20.55
2023-04-22T10:40:32.457Z,13.45
2023-04-22T10:43:59.891Z,16.35
2023-04-22T10:47:10.665Z,15.68
2023-04-22T10:50:36.750Z,14.65
2023-04-22T10:53:44.182Z,17.00
2023-04-22T10:56:57.441Z,19.73
2023-04-22T11:00:10.264Z,16.27
2023-04-22T11:03:27.799Z,16.95
2023-04-22T11:06:37.672Z,13.95
2023-04-22T11:09:42.725Z,11.10
2023-04-22T11:12:56.480Z,15.60
2023-04-22T11:16:09.165Z,13.35
2023-04-22T11:19:15.216Z,9.00
2023-04-22T11:22:22.173Z,11.93
2023-04-22T11:25:28.755Z,14.35
2023-04-22T11:28:35.857Z,13.70
2023-04-22T11:31:42.597Z,15.40
2023-04-22T11:34:47.240Z,12.25
2023-04-22T11:38:08.290Z,9.43
2023-04-22T11:41:13.225Z,20.35
2023-04-22T11:44:19.205Z,16.85
2023-04-22T11:47:27.275Z,10.63
2023-04-22T11:50:36.062Z,14.80
2023-04-22T11:53:41.099Z,16.37
2023-04-22T11:56:49.490Z,13.10
2023-04-22T11:59:56.531Z,9.63
2023-04-22T12:03:15.875Z,15.78
2023-04-22T12:06:23.880Z,12.23
2023-04-22T12:09:29.491Z,9.23
2023-04-22T12:12:43.368Z,14.10
2023-04-22T12:15:56.201Z,16.12
2023-04-22T12:19:06.488Z,9.08
2023-04-22T12:22:12.749Z,8.63
2023-04-22T12:25:18.688Z,9.48
2023-04-22T12:28:25.066Z,8.78
2023-04-22T12:31:30.552Z,7.42
2023-04-22T12:34:37.308Z,7.22
2023-04-22T12:37:43.702Z,8.48
2023-04-22T12:40:49.378Z,12.20
2023-04-22T12:43:57.762Z,7.37
2023-04-22T12:47:04.750Z,14.20
2023-04-22T12:50:13.001Z,7.95
2023-04-22T12:53:17.867Z,8.83
2023-04-22T12:56:22.830Z,5.75
2023-04-22T12:59:28.873Z,10.35
2023-04-22T13:02:34.656Z,13.68
2023-04-22T13:05:41.006Z,9.98
2023-04-22T13:08:46.998Z,6.10
2023-04-22T13:11:55.296Z,7.12
2023-04-22T13:15:00.584Z,7.00
2023-04-22T13:18:06.717Z,13.40
2023-04-22T13:21:13.476Z,8.28
2023-04-22T13:24:19.970Z,8.85
2023-04-22T13:27:26.837Z,9.78
2023-04-22T13:30:31.769Z,6.40
2023-04-22T13:33:37.245Z,7.80
2023-04-22T13:36:42.830Z,3.17
2023-04-22T13:39:48.678Z,8.43
2023-04-22T13:42:54.806Z,6.92
2023-04-22T13:46:02.983Z,7.78
2023-04-22T13:49:08.866Z,7.55
2023-04-22T13:52:14.931Z,12.40
2023-04-22T13:55:22.697Z,7.37
2023-04-22T13:58:28.884Z,7.72
2023-04-22T14:01:37.263Z,9.23
2023-04-22T14:04:42.652Z,6.97
2023-04-22T14:07:49.842Z,7.53
2023-04-22T14:10:55.788Z,10.43
2023-04-22T14:14:02.670Z,7.80
2023-04-22T14:17:08.528Z,10.23
2023-04-22T14:20:15.490Z,18.23
2023-04-22T14:23:20.544Z,12.63
2023-04-22T14:26:26.350Z,12.93
2023-04-22T14:29:33.229Z,8.70
2023-04-22T14:32:39.241Z,5.83
2023-04-22T14:35:44.623Z,6.42
2023-04-22T14:38:50.431Z,6.25
2023-04-22T14:41:57.058Z,4.37
2023-04-22T14:45:01.686Z,3.98
2023-04-22T14:48:08.577Z,6.80
2023-04-22T14:51:16.318Z,9.23
2023-04-22T14:54:23.777Z,4.97
2023-04-22T14:57:30.536Z,4.80
2023-04-22T15:00:37.766Z,8.98
2023-04-22T15:03:43.542Z,4.70
2023-04-22T15:06:50.078Z,8.53
2023-04-22T15:09:55.940Z,7.67
2023-04-22T15:13:03.530Z,9.63
2023-04-22T15:16:11.385Z,7.97
2023-04-22T15:19:18.071Z,7.20
2023-04-22T15:22:23.113Z,6.37
2023-04-22T15:25:29.633Z,8.23
2023-04-22T15:28:35.579Z,4.90
2023-04-22T15:31:40.594Z,8.40
2023-04-22T15:34:46.724Z,9.05
2023-04-22T15:37:52.982Z,9.33
2023-04-22T15:41:00.722Z,15.45
2023-04-22T15:44:10.078Z,7.37
2023-04-22T15:47:16.414Z,6.53
2023-04-22T15:50:24.429Z,5.60
2023-04-22T15:53:31.151Z,8.93
2023-04-22T15:56:36.957Z,5.47
2023-04-22T15:59:42.689Z,8.20
2023-04-22T16:02:48.863Z,6.90
2023-04-22T16:05:57.200Z,7.40
2023-04-22T16:09:03.630Z,26.97
2023-04-22T16:12:09.815Z,13.20
2023-04-22T16:15:17.047Z,6.50
2023-04-22T16:18:24.590Z,9.48
2023-04-22T16:21:31.920Z,15.23
2023-04-22T16:24:38.780Z,10.32
2023-04-22T16:27:45.107Z,9.13
2023-04-22T16:30:50.893Z,9.98
2023-04-22T16:33:57.273Z,9.35
2023-04-22T16:37:04.178Z,11.25
2023-04-22T16:40:09.205Z,9.55
2023-04-22T16:43:16.232Z,12.60
2023-04-22T16:46:23.455Z,9.03
2023-04-22T16:49:30.418Z,14.65
2023-04-22T16:52:36.055Z,17.37
2023-04-22T16:55:41.250Z,16.70
2023-04-22T16:58:46.004Z,12.95
2023-04-22T17:01:52.916Z,13.10
2023-04-22T17:04:58.443Z,11.90
2023-04-22T17:08:03.708Z,15.98
2023-04-22T17:11:10.256Z,18.70
2023-04-22T17:14:15.914Z,17.20
2023-04-22T17:17:22.375Z,11.78
2023-04-22T17:20:28.814Z,13.32
2023-04-22T17:23:33.838Z,14.55
2023-04-22T17:26:41.624Z,20.25
2023-04-22T17:29:48.638Z,18.75
2023-04-22T17:32:54.557Z,21.55
2023-04-22T17:35:59.969Z,23.22
2023-04-22T17:39:04.765Z,18.65
2023-04-22T17:42:11.249Z,21.45
2023-04-22T17:45:17.698Z,17.98
2023-04-22T17:48:24.283Z,14.53
2023-04-22T17:51:31.944Z,18.73
2023-04-22T17:54:39.012Z,24.60
2023-04-22T17:57:48.644Z,33.83
2023-04-22T18:00:53.520Z,30.70
2023-04-22T18:03:58.780Z,29.70
2023-04-22T18:07:06.065Z,38.23
2023-04-22T18:10:13.539Z,17.85
2023-04-22T18:13:21.461Z,12.63
2023-04-22T18:16:28.035Z,12.60
2023-04-22T18:19:32.788Z,10.30
2023-04-22T18:22:39.369Z,10.85
2023-04-22T18:25:44.991Z,9.45
2023-04-22T18:28:51.228Z,11.65
2023-04-22T18:31:56.965Z,9.28
2023-04-22T18:35:02.581Z,10.70
2023-04-22T18:38:08.871Z,10.90
2023-04-22T18:41:19.502Z,12.80
2023-04-22T18:44:25.361Z,17.23
2023-04-22T18:47:30.405Z,13.00
2023-04-22T18:50:37.901Z,19.10
2023-04-22T18:53:44.375Z,16.02
2023-04-22T18:56:51.638Z,14.90
2023-04-22T18:59:59.477Z,11.38
2023-04-22T19:03:07.045Z,11.57
2023-04-22T19:06:13.162Z,17.30
2023-04-22T19:09:21.123Z,23.73
2023-04-22T19:12:28.940Z,26.35
2023-04-22T19:15:34.821Z,28.62
2023-04-22T19:18:41.189Z,32.50
2023-04-22T19:21:47.428Z,45.67
2023-04-22T19:24:56.640Z,48.38
2023-04-22T19:28:02.714Z,36.98
2023-04-22T19:31:08.343Z,34.38
2023-04-22T19:34:17.410Z,36.17
2023-04-22T19:37:24.138Z,40.20
2023-04-22T19:40:29.675Z,35.00
2023-04-22T19:43:37.358Z,36.70
2023-04-22T19:46:45.330Z,34.60
2023-04-22T19:49:51.296Z,34.95
2023-04-22T19:52:58.668Z,38.58
2023-04-22T19:56:04.562Z,40.12
2023-04-22T19:59:10.541Z,59.25
2023-04-22T20:02:17.089Z,51.85
2023-04-22T20:05:23.691Z,43.23
2023-04-22T20:08:29.883Z,47.62
2023-04-22T20:11:36.397Z,42.33
2023-04-22T20:14:41.622Z,41.55
2023-04-22T20:17:48.335Z,41.58
2023-04-22T20:20:58.100Z,48.45
2023-04-22T20:24:05.218Z,57.67
2023-04-22T20:27:10.538Z,50.43
2023-04-22T20:30:16.397Z,55.40
2023-04-22T20:33:24.032Z,77.67
2023-04-22T20:36:31.346Z,61.42
2023-04-22T20:39:38.477Z,61.83
2023-04-22T20:42:46.201Z,59.35
2023-04-22T20:45:51.700Z,59.88
2023-04-22T20:48:57.497Z,35.30
2023-04-22T20:52:03.860Z,41.28
2023-04-22T20:55:13.193Z,39.65
2023-04-22T20:58:20.576Z,62.38
2023-04-22T21:01:26.448Z,52.25
2023-04-22T21:04:36.387Z,48.60
2023-04-22T21:07:43.314Z,50.05
2023-04-22T21:10:50.784Z,42.30
2023-04-22T21:13:58.959Z,39.67
2023-04-22T21:17:16.064Z,31.48
2023-04-22T21:20:23.035Z,28.07
2023-04-22T21:23:30.198Z,30.57
2023-04-22T21:26:37.388Z,31.97
2023-04-22T21:29:45.922Z,31.30
2023-04-22T21:32:52.048Z,26.42
2023-04-22T21:35:59.463Z,23.92
2023-04-22T21:39:05.905Z,20.95
2023-04-22T21:42:13.903Z,19.75
2023-04-22T21:45:22.428Z,21.00
2023-04-22T21:48:28.788Z,22.00
2023-04-22T21:51:34.426Z,16.80
2023-04-22T21:54:40.950Z,17.77
2023-04-22T21:57:46.957Z,15.85
2023-04-22T22:00:52.594Z,19.73
2023-04-22T22:03:59.052Z,19.12
2023-04-22T22:07:05.009Z,17.45
2023-04-22T22:10:10.448Z,19.20
2023-04-22T22:13:16.697Z,20.10
2023-04-22T22:16:24.882Z,21.87
2023-04-22T22:19:32.704Z,22.32
2023-04-22T22:22:38.164Z,17.60
2023-04-22T22:25:45.649Z,20.72
2023-04-22T22:28:51.440Z,22.55
2023-04-22T22:31:59.278Z,18.17
2023-04-22T22:35:05.482Z,17.82
2023-04-22T22:38:12.300Z,18.57
2023-04-22T22:41:19.375Z,15.65
2023-04-22T22:44:26.025Z,26.07
2023-04-22T22:47:25.493Z,28.83
2023-04-22T22:50:33.955Z,26.07
2023-04-22T22:53:42.454Z,31.23
2023-04-22T22:56:47.527Z,28.38
2023-04-22T22:59:53.181Z,26.97
2023-04-22T23:02:59.489Z,32.13
2023-04-22T23:06:06.515Z,29.42
2023-04-22T23:09:12.077Z,31.17
2023-04-22T23:12:18.260Z,33.42
2023-04-22T23:15:25.105Z,35.28
2023-04-22T23:18:31.538Z,35.00
2023-04-22T23:21:37.428Z,33.63
2023-04-22T23:24:43.415Z,31.73
2023-04-22T23:27:52.022Z,31.57
2023-04-22T23:30:58.407Z,30.27
2023-04-22T23:34:05.458Z,28.27
2023-04-22T23:37:10.562Z,22.98
2023-04-22T23:40:17.058Z,24.77
2023-04-22T23:43:22.841Z,24.30
2023-04-22T23:46:28.570Z,22.42
2023-04-22T23:49:35.678Z,27.10
2023-04-22T23:52:43.080Z,26.10
2023-04-22T23:55:49.402Z,24.37
2023-04-22T23:58:56.293Z,31.20
